Аэропорт: Братск. Братск

ICAO: UIBB

METAR:
2019/03/26 13:00
UIBB 261300Z 28003MPS 9999 NSC M05/M18 Q1029 R30/820550 NOSIG RMK QFE728/0971
METAR:
2019/03/26 12:21
TAF UIBB 261100Z 2612/2712 28003MPS 9999 SCT020